sensor_id;sensor_type;location;lat;lon;timestamp;P1;durP1;ratioP1;P2;durP2;ratioP2
12224;SDS011;6175;50.956;11.064;2023-06-26T00:00:35;3.88;;;3.58;;
12224;SDS011;6175;50.956;11.064;2023-06-26T00:03:03;4.28;;;3.88;;
12224;SDS011;6175;50.956;11.064;2023-06-26T00:05:31;4.30;;;3.90;;
12224;SDS011;6175;50.956;11.064;2023-06-26T00:07:59;4.30;;;3.90;;
12224;SDS011;6175;50.956;11.064;2023-06-26T00:10:26;4.07;;;3.65;;
12224;SDS011;6175;50.956;11.064;2023-06-26T00:12:53;4.30;;;3.80;;
12224;SDS011;6175;50.956;11.064;2023-06-26T00:15:20;3.78;;;3.47;;
12224;SDS011;6175;50.956;11.064;2023-06-26T00:17:47;3.75;;;3.45;;
12224;SDS011;6175;50.956;11.064;2023-06-26T00:20:15;3.92;;;3.53;;
12224;SDS011;6175;50.956;11.064;2023-06-26T00:22:45;3.70;;;3.40;;
12224;SDS011;6175;50.956;11.064;2023-06-26T00:25:15;4.05;;;3.60;;
12224;SDS011;6175;50.956;11.064;2023-06-26T00:27:42;4.30;;;4.00;;
12224;SDS011;6175;50.956;11.064;2023-06-26T00:30:10;3.83;;;3.33;;
12224;SDS011;6175;50.956;11.064;2023-06-26T00:32:37;3.83;;;3.53;;
12224;SDS011;6175;50.956;11.064;2023-06-26T00:35:04;3.85;;;3.55;;
12224;SDS011;6175;50.956;11.064;2023-06-26T00:37:31;4.13;;;3.72;;
12224;SDS011;6175;50.956;11.064;2023-06-26T00:40:00;3.85;;;3.45;;
12224;SDS011;6175;50.956;11.064;2023-06-26T00:42:30;3.88;;;3.58;;
12224;SDS011;6175;50.956;11.064;2023-06-26T00:44:57;4.32;;;3.65;;
12224;SDS011;6175;50.956;11.064;2023-06-26T00:47:24;3.95;;;3.65;;
12224;SDS011;6175;50.956;11.064;2023-06-26T00:49:51;4.13;;;3.70;;
12224;SDS011;6175;50.956;11.064;2023-06-26T00:52:19;3.78;;;3.47;;
12224;SDS011;6175;50.956;11.064;2023-06-26T00:54:46;4.07;;;3.78;;
12224;SDS011;6175;50.956;11.064;2023-06-26T00:57:14;3.65;;;3.35;;
12224;SDS011;6175;50.956;11.064;2023-06-26T00:59:42;4.10;;;3.80;;
12224;SDS011;6175;50.956;11.064;2023-06-26T01:02:09;4.10;;;3.80;;
12224;SDS011;6175;50.956;11.064;2023-06-26T01:04:36;3.70;;;3.40;;
12224;SDS011;6175;50.956;11.064;2023-06-26T01:07:05;4.03;;;3.72;;
12224;SDS011;6175;50.956;11.064;2023-06-26T01:09:33;4.25;;;3.95;;
12224;SDS011;6175;50.956;11.064;2023-06-26T01:12:00;4.35;;;3.95;;
12224;SDS011;6175;50.956;11.064;2023-06-26T01:14:29;4.45;;;4.07;;
12224;SDS011;6175;50.956;11.064;2023-06-26T01:16:57;4.28;;;3.95;;
12224;SDS011;6175;50.956;11.064;2023-06-26T01:19:26;3.92;;;3.55;;
12224;SDS011;6175;50.956;11.064;2023-06-26T01:21:55;4.15;;;3.75;;
12224;SDS011;6175;50.956;11.064;2023-06-26T01:24:28;4.18;;;3.85;;
12224;SDS011;6175;50.956;11.064;2023-06-26T01:26:59;4.90;;;4.40;;
12224;SDS011;6175;50.956;11.064;2023-06-26T01:29:28;4.78;;;4.20;;
12224;SDS011;6175;50.956;11.064;2023-06-26T01:31:55;4.50;;;4.10;;
12224;SDS011;6175;50.956;11.064;2023-06-26T01:34:22;4.60;;;4.20;;
12224;SDS011;6175;50.956;11.064;2023-06-26T01:36:49;4.45;;;4.05;;
12224;SDS011;6175;50.956;11.064;2023-06-26T01:39:18;5.85;;;4.72;;
12224;SDS011;6175;50.956;11.064;2023-06-26T01:41:45;4.80;;;4.40;;
12224;SDS011;6175;50.956;11.064;2023-06-26T01:44:17;4.60;;;4.20;;
12224;SDS011;6175;50.956;11.064;2023-06-26T01:46:51;4.78;;;4.38;;
12224;SDS011;6175;50.956;11.064;2023-06-26T01:49:25;4.53;;;4.13;;
12224;SDS011;6175;50.956;11.064;2023-06-26T01:51:58;5.07;;;4.32;;
12224;SDS011;6175;50.956;11.064;2023-06-26T01:54:30;4.25;;;3.85;;
12224;SDS011;6175;50.956;11.064;2023-06-26T01:57:00;4.28;;;3.88;;
12224;SDS011;6175;50.956;11.064;2023-06-26T01:59:28;4.15;;;3.85;;
12224;SDS011;6175;50.956;11.064;2023-06-26T02:01:57;4.70;;;4.30;;
12224;SDS011;6175;50.956;11.064;2023-06-26T02:04:24;4.22;;;3.92;;
12224;SDS011;6175;50.956;11.064;2023-06-26T02:06:51;4.10;;;3.80;;
12224;SDS011;6175;50.956;11.064;2023-06-26T02:09:19;4.63;;;4.22;;
12224;SDS011;6175;50.956;11.064;2023-06-26T02:11:47;4.13;;;3.83;;
12224;SDS011;6175;50.956;11.064;2023-06-26T02:14:14;4.95;;;4.53;;
12224;SDS011;6175;50.956;11.064;2023-06-26T02:16:42;4.47;;;4.07;;
12224;SDS011;6175;50.956;11.064;2023-06-26T02:19:09;4.75;;;4.35;;
12224;SDS011;6175;50.956;11.064;2023-06-26T02:21:36;4.90;;;4.50;;
12224;SDS011;6175;50.956;11.064;2023-06-26T02:24:04;5.43;;;4.95;;
12224;SDS011;6175;50.956;11.064;2023-06-26T02:26:31;5.30;;;4.82;;
12224;SDS011;6175;50.956;11.064;2023-06-26T02:28:58;5.07;;;4.68;;
12224;SDS011;6175;50.956;11.064;2023-06-26T02:31:25;5.32;;;4.82;;
12224;SDS011;6175;50.956;11.064;2023-06-26T02:33:53;5.90;;;5.32;;
12224;SDS011;6175;50.956;11.064;2023-06-26T02:36:20;5.75;;;5.25;;
12224;SDS011;6175;50.956;11.064;2023-06-26T02:38:48;6.20;;;5.60;;
12224;SDS011;6175;50.956;11.064;2023-06-26T02:41:15;5.95;;;5.45;;
12224;SDS011;6175;50.956;11.064;2023-06-26T02:43:42;6.70;;;6.03;;
12224;SDS011;6175;50.956;11.064;2023-06-26T02:46:09;6.25;;;5.53;;
12224;SDS011;6175;50.956;11.064;2023-06-26T02:48:36;6.30;;;5.70;;
12224;SDS011;6175;50.956;11.064;2023-06-26T02:51:05;5.75;;;5.15;;
12224;SDS011;6175;50.956;11.064;2023-06-26T02:53:32;6.07;;;5.57;;
12224;SDS011;6175;50.956;11.064;2023-06-26T02:55:59;6.30;;;5.57;;
12224;SDS011;6175;50.956;11.064;2023-06-26T02:58:27;5.85;;;5.35;;
12224;SDS011;6175;50.956;11.064;2023-06-26T03:00:54;6.55;;;5.95;;
12224;SDS011;6175;50.956;11.064;2023-06-26T03:03:21;5.40;;;4.90;;
12224;SDS011;6175;50.956;11.064;2023-06-26T03:05:48;5.38;;;4.97;;
12224;SDS011;6175;50.956;11.064;2023-06-26T03:08:17;5.50;;;5.00;;
12224;SDS011;6175;50.956;11.064;2023-06-26T03:10:44;5.28;;;4.78;;
12224;SDS011;6175;50.956;11.064;2023-06-26T03:13:11;4.80;;;4.40;;
12224;SDS011;6175;50.956;11.064;2023-06-26T03:15:38;4.57;;;4.18;;
12224;SDS011;6175;50.956;11.064;2023-06-26T03:18:05;4.93;;;4.53;;
12224;SDS011;6175;50.956;11.064;2023-06-26T03:20:34;4.95;;;4.45;;
12224;SDS011;6175;50.956;11.064;2023-06-26T03:23:01;4.80;;;4.40;;
12224;SDS011;6175;50.956;11.064;2023-06-26T03:25:30;5.10;;;4.68;;
12224;SDS011;6175;50.956;11.064;2023-06-26T03:27:57;4.65;;;4.25;;
12224;SDS011;6175;50.956;11.064;2023-06-26T03:30:24;4.93;;;4.53;;
12224;SDS011;6175;50.956;11.064;2023-06-26T03:32:51;5.50;;;5.00;;
12224;SDS011;6175;50.956;11.064;2023-06-26T03:35:19;4.97;;;4.57;;
12224;SDS011;6175;50.956;11.064;2023-06-26T03:37:46;5.57;;;5.07;;
12224;SDS011;6175;50.956;11.064;2023-06-26T03:40:13;5.32;;;4.82;;
12224;SDS011;6175;50.956;11.064;2023-06-26T03:42:42;5.25;;;4.75;;
12224;SDS011;6175;50.956;11.064;2023-06-26T03:45:09;5.22;;;4.72;;
12224;SDS011;6175;50.956;11.064;2023-06-26T03:47:36;5.70;;;5.20;;
12224;SDS011;6175;50.956;11.064;2023-06-26T03:50:03;4.50;;;4.20;;
12224;SDS011;6175;50.956;11.064;2023-06-26T03:52:30;5.80;;;5.30;;
12224;SDS011;6175;50.956;11.064;2023-06-26T03:54:58;5.47;;;4.97;;
12224;SDS011;6175;50.956;11.064;2023-06-26T03:57:25;5.28;;;4.78;;
12224;SDS011;6175;50.956;11.064;2023-06-26T03:59:53;5.22;;;4.72;;
12224;SDS011;6175;50.956;11.064;2023-06-26T04:02:20;4.97;;;4.57;;
12224;SDS011;6175;50.956;11.064;2023-06-26T04:04:48;4.80;;;4.30;;
12224;SDS011;6175;50.956;11.064;2023-06-26T04:07:15;4.70;;;4.30;;
12224;SDS011;6175;50.956;11.064;2023-06-26T04:09:42;4.60;;;4.20;;
12224;SDS011;6175;50.956;11.064;2023-06-26T04:12:09;5.47;;;4.97;;
12224;SDS011;6175;50.956;11.064;2023-06-26T04:14:36;4.50;;;4.15;;
12224;SDS011;6175;50.956;11.064;2023-06-26T04:17:04;4.95;;;4.55;;
12224;SDS011;6175;50.956;11.064;2023-06-26T04:19:32;5.07;;;4.57;;
12224;SDS011;6175;50.956;11.064;2023-06-26T04:22:01;4.78;;;4.38;;
12224;SDS011;6175;50.956;11.064;2023-06-26T04:24:28;5.25;;;4.80;;
12224;SDS011;6175;50.956;11.064;2023-06-26T04:26:55;4.80;;;4.30;;
12224;SDS011;6175;50.956;11.064;2023-06-26T04:29:22;4.78;;;4.38;;
12224;SDS011;6175;50.956;11.064;2023-06-26T04:31:50;4.95;;;4.47;;
12224;SDS011;6175;50.956;11.064;2023-06-26T04:34:18;5.53;;;5.03;;
12224;SDS011;6175;50.956;11.064;2023-06-26T04:36:46;4.85;;;4.35;;
12224;SDS011;6175;50.956;11.064;2023-06-26T04:39:15;5.13;;;4.72;;
12224;SDS011;6175;50.956;11.064;2023-06-26T04:41:43;4.97;;;4.57;;
12224;SDS011;6175;50.956;11.064;2023-06-26T04:44:10;5.53;;;5.03;;
12224;SDS011;6175;50.956;11.064;2023-06-26T04:46:38;4.78;;;4.38;;
12224;SDS011;6175;50.956;11.064;2023-06-26T04:49:06;4.63;;;4.22;;
12224;SDS011;6175;50.956;11.064;2023-06-26T04:51:34;4.95;;;4.55;;
12224;SDS011;6175;50.956;11.064;2023-06-26T04:54:05;5.03;;;4.60;;
12224;SDS011;6175;50.956;11.064;2023-06-26T04:56:32;4.88;;;4.47;;
12224;SDS011;6175;50.956;11.064;2023-06-26T04:58:59;4.85;;;4.35;;
12224;SDS011;6175;50.956;11.064;2023-06-26T05:01:26;4.85;;;4.45;;
12224;SDS011;6175;50.956;11.064;2023-06-26T05:03:55;4.72;;;4.32;;
12224;SDS011;6175;50.956;11.064;2023-06-26T05:06:22;5.13;;;4.72;;
12224;SDS011;6175;50.956;11.064;2023-06-26T05:08:50;5.00;;;4.60;;
12224;SDS011;6175;50.956;11.064;2023-06-26T05:11:18;5.40;;;4.90;;
12224;SDS011;6175;50.956;11.064;2023-06-26T05:13:45;5.68;;;5.15;;
12224;SDS011;6175;50.956;11.064;2023-06-26T05:16:12;5.00;;;4.50;;
12224;SDS011;6175;50.956;11.064;2023-06-26T05:18:39;5.63;;;5.00;;
12224;SDS011;6175;50.956;11.064;2023-06-26T05:21:06;5.88;;;5.28;;
12224;SDS011;6175;50.956;11.064;2023-06-26T05:23:33;5.63;;;5.13;;
12224;SDS011;6175;50.956;11.064;2023-06-26T05:26:02;5.20;;;4.80;;
12224;SDS011;6175;50.956;11.064;2023-06-26T05:28:30;5.10;;;4.68;;
12224;SDS011;6175;50.956;11.064;2023-06-26T05:30:57;5.10;;;4.70;;
12224;SDS011;6175;50.956;11.064;2023-06-26T05:33:26;6.07;;;5.53;;
12224;SDS011;6175;50.956;11.064;2023-06-26T05:35:53;5.95;;;5.30;;
12224;SDS011;6175;50.956;11.064;2023-06-26T05:38:20;5.63;;;5.07;;
12224;SDS011;6175;50.956;11.064;2023-06-26T05:40:48;5.55;;;5.07;;
12224;SDS011;6175;50.956;11.064;2023-06-26T05:43:18;5.78;;;5.28;;
12224;SDS011;6175;50.956;11.064;2023-06-26T05:45:46;5.45;;;4.95;;
12224;SDS011;6175;50.956;11.064;2023-06-26T05:48:13;5.50;;;5.00;;
12224;SDS011;6175;50.956;11.064;2023-06-26T05:50:41;5.35;;;4.88;;
12224;SDS011;6175;50.956;11.064;2023-06-26T05:53:09;5.53;;;4.93;;
12224;SDS011;6175;50.956;11.064;2023-06-26T05:55:37;5.40;;;4.90;;
12224;SDS011;6175;50.956;11.064;2023-06-26T05:58:06;6.30;;;5.70;;
12224;SDS011;6175;50.956;11.064;2023-06-26T06:00:36;5.55;;;4.93;;
12224;SDS011;6175;50.956;11.064;2023-06-26T06:03:03;5.32;;;4.82;;
12224;SDS011;6175;50.956;11.064;2023-06-26T06:05:30;6.00;;;5.40;;
12224;SDS011;6175;50.956;11.064;2023-06-26T06:07:57;5.50;;;5.00;;
12224;SDS011;6175;50.956;11.064;2023-06-26T06:10:24;5.65;;;5.20;;
12224;SDS011;6175;50.956;11.064;2023-06-26T06:12:51;5.95;;;5.10;;
12224;SDS011;6175;50.956;11.064;2023-06-26T06:15:19;5.65;;;5.15;;
12224;SDS011;6175;50.956;11.064;2023-06-26T06:17:48;6.30;;;5.72;;
12224;SDS011;6175;50.956;11.064;2023-06-26T06:20:15;5.72;;;5.22;;
12224;SDS011;6175;50.956;11.064;2023-06-26T06:22:42;5.28;;;4.88;;
12224;SDS011;6175;50.956;11.064;2023-06-26T06:25:09;5.35;;;4.95;;
12224;SDS011;6175;50.956;11.064;2023-06-26T06:27:36;6.53;;;5.50;;
12224;SDS011;6175;50.956;11.064;2023-06-26T06:30:03;6.43;;;5.38;;
12224;SDS011;6175;50.956;11.064;2023-06-26T06:32:30;5.72;;;5.22;;
12224;SDS011;6175;50.956;11.064;2023-06-26T06:35:00;5.95;;;5.40;;
12224;SDS011;6175;50.956;11.064;2023-06-26T06:37:34;5.82;;;4.75;;
12224;SDS011;6175;50.956;11.064;2023-06-26T06:40:01;5.88;;;5.28;;
12224;SDS011;6175;50.956;11.064;2023-06-26T06:42:29;5.78;;;5.28;;
12224;SDS011;6175;50.956;11.064;2023-06-26T06:44:56;5.80;;;5.25;;
12224;SDS011;6175;50.956;11.064;2023-06-26T06:47:24;7.60;;;5.13;;
12224;SDS011;6175;50.956;11.064;2023-06-26T06:49:51;5.70;;;5.20;;
12224;SDS011;6175;50.956;11.064;2023-06-26T06:52:20;5.22;;;4.80;;
12224;SDS011;6175;50.956;11.064;2023-06-26T06:54:53;5.18;;;4.75;;
12224;SDS011;6175;50.956;11.064;2023-06-26T06:57:24;5.60;;;4.93;;
12224;SDS011;6175;50.956;11.064;2023-06-26T06:59:51;5.15;;;4.68;;
12224;SDS011;6175;50.956;11.064;2023-06-26T07:02:18;6.25;;;5.53;;
12224;SDS011;6175;50.956;11.064;2023-06-26T07:04:45;5.82;;;5.22;;
12224;SDS011;6175;50.956;11.064;2023-06-26T07:07:13;5.53;;;5.03;;
12224;SDS011;6175;50.956;11.064;2023-06-26T07:09:41;5.78;;;5.28;;
12224;SDS011;6175;50.956;11.064;2023-06-26T07:12:08;5.85;;;5.05;;
12224;SDS011;6175;50.956;11.064;2023-06-26T07:14:36;5.97;;;5.43;;
12224;SDS011;6175;50.956;11.064;2023-06-26T07:17:04;5.88;;;4.97;;
12224;SDS011;6175;50.956;11.064;2023-06-26T07:19:31;5.35;;;4.85;;
12224;SDS011;6175;50.956;11.064;2023-06-26T07:21:58;5.35;;;4.78;;
12224;SDS011;6175;50.956;11.064;2023-06-26T07:24:26;5.30;;;4.80;;
12224;SDS011;6175;50.956;11.064;2023-06-26T07:26:54;5.25;;;4.85;;
12224;SDS011;6175;50.956;11.064;2023-06-26T07:29:21;5.22;;;4.80;;
12224;SDS011;6175;50.956;11.064;2023-06-26T07:31:48;5.25;;;4.80;;
12224;SDS011;6175;50.956;11.064;2023-06-26T07:34:16;5.47;;;5.00;;
12224;SDS011;6175;50.956;11.064;2023-06-26T07:36:43;5.03;;;4.63;;
12224;SDS011;6175;50.956;11.064;2023-06-26T07:39:10;5.45;;;4.80;;
12224;SDS011;6175;50.956;11.064;2023-06-26T07:41:37;5.15;;;4.75;;
12224;SDS011;6175;50.956;11.064;2023-06-26T07:44:05;5.10;;;4.70;;
12224;SDS011;6175;50.956;11.064;2023-06-26T07:46:32;5.25;;;4.82;;
12224;SDS011;6175;50.956;11.064;2023-06-26T07:49:00;5.50;;;5.10;;
12224;SDS011;6175;50.956;11.064;2023-06-26T07:51:27;5.07;;;4.57;;
12224;SDS011;6175;50.956;11.064;2023-06-26T07:53:54;5.63;;;5.13;;
12224;SDS011;6175;50.956;11.064;2023-06-26T07:56:21;5.50;;;5.00;;
12224;SDS011;6175;50.956;11.064;2023-06-26T07:58:48;5.70;;;5.20;;
12224;SDS011;6175;50.956;11.064;2023-06-26T08:01:17;5.60;;;5.10;;
12224;SDS011;6175;50.956;11.064;2023-06-26T08:03:44;5.47;;;4.97;;
12224;SDS011;6175;50.956;11.064;2023-06-26T08:06:11;5.20;;;4.80;;
12224;SDS011;6175;50.956;11.064;2023-06-26T08:08:38;5.50;;;5.00;;
12224;SDS011;6175;50.956;11.064;2023-06-26T08:11:06;5.50;;;5.00;;
12224;SDS011;6175;50.956;11.064;2023-06-26T08:13:33;6.00;;;4.88;;
12224;SDS011;6175;50.956;11.064;2023-06-26T08:16:00;5.32;;;4.82;;
12224;SDS011;6175;50.956;11.064;2023-06-26T08:18:29;4.65;;;4.35;;
12224;SDS011;6175;50.956;11.064;2023-06-26T08:20:56;4.97;;;4.57;;
12224;SDS011;6175;50.956;11.064;2023-06-26T08:23:23;5.63;;;5.05;;
12224;SDS011;6175;50.956;11.064;2023-06-26T08:25:50;5.47;;;4.63;;
12224;SDS011;6175;50.956;11.064;2023-06-26T08:28:17;5.35;;;4.85;;
12224;SDS011;6175;50.956;11.064;2023-06-26T08:30:44;5.60;;;5.10;;
12224;SDS011;6175;50.956;11.064;2023-06-26T08:33:11;5.40;;;4.95;;
12224;SDS011;6175;50.956;11.064;2023-06-26T08:35:40;6.22;;;4.97;;
12224;SDS011;6175;50.956;11.064;2023-06-26T08:38:07;5.40;;;4.85;;
12224;SDS011;6175;50.956;11.064;2023-06-26T08:40:35;5.57;;;5.18;;
12224;SDS011;6175;50.956;11.064;2023-06-26T08:43:03;5.20;;;4.70;;
12224;SDS011;6175;50.956;11.064;2023-06-26T08:45:30;5.95;;;5.45;;
12224;SDS011;6175;50.956;11.064;2023-06-26T08:47:58;4.90;;;4.50;;
12224;SDS011;6175;50.956;11.064;2023-06-26T08:50:30;5.53;;;5.07;;
12224;SDS011;6175;50.956;11.064;2023-06-26T08:53:00;4.95;;;4.45;;
12224;SDS011;6175;50.956;11.064;2023-06-26T08:55:32;5.03;;;4.63;;
12224;SDS011;6175;50.956;11.064;2023-06-26T08:58:00;5.85;;;4.63;;
12224;SDS011;6175;50.956;11.064;2023-06-26T09:00:27;5.30;;;4.80;;
12224;SDS011;6175;50.956;11.064;2023-06-26T09:02:54;5.78;;;5.10;;
12224;SDS011;6175;50.956;11.064;2023-06-26T09:05:22;5.72;;;5.22;;
12224;SDS011;6175;50.956;11.064;2023-06-26T09:07:49;5.18;;;4.78;;
12224;SDS011;6175;50.956;11.064;2023-06-26T09:10:20;4.35;;;4.05;;
12224;SDS011;6175;50.956;11.064;2023-06-26T09:12:47;6.05;;;4.72;;
12224;SDS011;6175;50.956;11.064;2023-06-26T09:15:14;5.60;;;5.20;;
12224;SDS011;6175;50.956;11.064;2023-06-26T09:17:42;5.05;;;4.63;;
12224;SDS011;6175;50.956;11.064;2023-06-26T09:20:09;5.13;;;4.68;;
12224;SDS011;6175;50.956;11.064;2023-06-26T09:22:37;5.55;;;5.03;;
12224;SDS011;6175;50.956;11.064;2023-06-26T09:25:06;5.40;;;4.90;;
12224;SDS011;6175;50.956;11.064;2023-06-26T09:27:35;5.97;;;5.47;;
12224;SDS011;6175;50.956;11.064;2023-06-26T09:30:02;5.80;;;5.30;;
12224;SDS011;6175;50.956;11.064;2023-06-26T09:32:33;4.95;;;4.55;;
12224;SDS011;6175;50.956;11.064;2023-06-26T09:35:01;5.93;;;5.43;;
12224;SDS011;6175;50.956;11.064;2023-06-26T09:37:29;5.65;;;4.90;;
12224;SDS011;6175;50.956;11.064;2023-06-26T09:39:56;5.80;;;5.10;;
12224;SDS011;6175;50.956;11.064;2023-06-26T09:42:23;6.35;;;5.25;;
12224;SDS011;6175;50.956;11.064;2023-06-26T09:44:51;5.30;;;4.90;;
12224;SDS011;6175;50.956;11.064;2023-06-26T09:47:19;5.95;;;5.43;;
12224;SDS011;6175;50.956;11.064;2023-06-26T09:49:46;5.35;;;4.95;;
12224;SDS011;6175;50.956;11.064;2023-06-26T09:52:14;5.30;;;4.80;;
12224;SDS011;6175;50.956;11.064;2023-06-26T09:54:42;5.68;;;5.20;;
12224;SDS011;6175;50.956;11.064;2023-06-26T09:57:10;5.43;;;4.93;;
12224;SDS011;6175;50.956;11.064;2023-06-26T09:59:37;5.00;;;4.60;;
12224;SDS011;6175;50.956;11.064;2023-06-26T10:02:06;6.03;;;5.45;;
12224;SDS011;6175;50.956;11.064;2023-06-26T10:04:35;5.53;;;5.13;;
12224;SDS011;6175;50.956;11.064;2023-06-26T10:07:04;5.78;;;5.28;;
12224;SDS011;6175;50.956;11.064;2023-06-26T10:09:31;5.15;;;4.75;;
12224;SDS011;6175;50.956;11.064;2023-06-26T10:12:01;5.32;;;4.90;;
12224;SDS011;6175;50.956;11.064;2023-06-26T10:14:31;5.65;;;5.20;;
12224;SDS011;6175;50.956;11.064;2023-06-26T10:17:00;5.45;;;4.95;;
12224;SDS011;6175;50.956;11.064;2023-06-26T10:19:31;6.05;;;5.55;;
12224;SDS011;6175;50.956;11.064;2023-06-26T10:21:58;5.80;;;5.30;;
12224;SDS011;6175;50.956;11.064;2023-06-26T10:24:28;6.40;;;5.40;;
12224;SDS011;6175;50.956;11.064;2023-06-26T10:26:59;5.68;;;5.18;;
12224;SDS011;6175;50.956;11.064;2023-06-26T10:29:28;5.50;;;5.07;;
12224;SDS011;6175;50.956;11.064;2023-06-26T10:31:58;5.95;;;4.82;;
12224;SDS011;6175;50.956;11.064;2023-06-26T10:34:25;5.57;;;5.07;;
12224;SDS011;6175;50.956;11.064;2023-06-26T10:36:59;5.70;;;5.30;;
12224;SDS011;6175;50.956;11.064;2023-06-26T10:39:27;5.70;;;5.20;;
12224;SDS011;6175;50.956;11.064;2023-06-26T10:42:07;5.72;;;5.22;;
12224;SDS011;6175;50.956;11.064;2023-06-26T10:44:40;5.50;;;5.05;;
12224;SDS011;6175;50.956;11.064;2023-06-26T10:47:08;5.35;;;4.90;;
12224;SDS011;6175;50.956;11.064;2023-06-26T10:49:36;6.18;;;5.68;;
12224;SDS011;6175;50.956;11.064;2023-06-26T10:52:06;5.90;;;5.40;;
12224;SDS011;6175;50.956;11.064;2023-06-26T10:54:33;6.05;;;5.55;;
12224;SDS011;6175;50.956;11.064;2023-06-26T10:57:01;5.53;;;5.13;;
12224;SDS011;6175;50.956;11.064;2023-06-26T10:59:31;5.97;;;5.35;;
12224;SDS011;6175;50.956;11.064;2023-06-26T11:01:58;6.43;;;5.63;;
12224;SDS011;6175;50.956;11.064;2023-06-26T11:04:35;5.50;;;5.10;;
12224;SDS011;6175;50.956;11.064;2023-06-26T11:07:15;5.28;;;4.88;;
12224;SDS011;6175;50.956;11.064;2023-06-26T11:09:54;6.38;;;5.78;;
12224;SDS011;6175;50.956;11.064;2023-06-26T11:12:38;5.50;;;5.00;;
12224;SDS011;6175;50.956;11.064;2023-06-26T11:15:07;6.30;;;5.40;;
12224;SDS011;6175;50.956;11.064;2023-06-26T11:17:34;5.95;;;5.38;;
12224;SDS011;6175;50.956;11.064;2023-06-26T11:20:02;6.05;;;5.45;;
12224;SDS011;6175;50.956;11.064;2023-06-26T11:22:32;5.38;;;4.97;;
12224;SDS011;6175;50.956;11.064;2023-06-26T11:25:01;4.95;;;4.55;;
12224;SDS011;6175;50.956;11.064;2023-06-26T11:27:32;5.32;;;4.90;;
12224;SDS011;6175;50.956;11.064;2023-06-26T11:30:04;5.65;;;5.15;;
12224;SDS011;6175;50.956;11.064;2023-06-26T11:32:31;6.13;;;5.32;;
12224;SDS011;6175;50.956;11.064;2023-06-26T11:34:58;4.93;;;4.53;;
12224;SDS011;6175;50.956;11.064;2023-06-26T11:37:25;5.43;;;4.93;;
12224;SDS011;6175;50.956;11.064;2023-06-26T11:39:54;5.30;;;4.90;;
12224;SDS011;6175;50.956;11.064;2023-06-26T11:42:22;5.35;;;4.95;;
12224;SDS011;6175;50.956;11.064;2023-06-26T11:44:49;5.00;;;4.60;;
12224;SDS011;6175;50.956;11.064;2023-06-26T11:47:17;5.57;;;5.07;;
12224;SDS011;6175;50.956;11.064;2023-06-26T11:49:45;5.38;;;4.97;;
12224;SDS011;6175;50.956;11.064;2023-06-26T11:52:13;5.50;;;5.00;;
12224;SDS011;6175;50.956;11.064;2023-06-26T11:54:41;5.50;;;5.10;;
12224;SDS011;6175;50.956;11.064;2023-06-26T11:57:13;5.50;;;5.05;;
12224;SDS011;6175;50.956;11.064;2023-06-26T11:59:40;5.50;;;5.00;;
12224;SDS011;6175;50.956;11.064;2023-06-26T12:02:08;5.30;;;4.90;;
12224;SDS011;6175;50.956;11.064;2023-06-26T12:04:37;5.85;;;5.35;;
12224;SDS011;6175;50.956;11.064;2023-06-26T12:07:06;5.50;;;5.00;;
12224;SDS011;6175;50.956;11.064;2023-06-26T12:09:37;5.57;;;5.10;;
12224;SDS011;6175;50.956;11.064;2023-06-26T12:12:05;5.68;;;5.20;;
12224;SDS011;6175;50.956;11.064;2023-06-26T12:14:34;5.80;;;5.30;;
12224;SDS011;6175;50.956;11.064;2023-06-26T12:17:05;5.60;;;5.10;;
12224;SDS011;6175;50.956;11.064;2023-06-26T12:19:34;5.90;;;5.10;;
12224;SDS011;6175;50.956;11.064;2023-06-26T12:22:05;6.28;;;5.07;;
12224;SDS011;6175;50.956;11.064;2023-06-26T12:24:33;5.28;;;4.88;;
12224;SDS011;6175;50.956;11.064;2023-06-26T12:27:02;6.47;;;5.15;;
12224;SDS011;6175;50.956;11.064;2023-06-26T12:29:31;5.60;;;5.20;;
12224;SDS011;6175;50.956;11.064;2023-06-26T12:32:00;5.47;;;5.07;;
12224;SDS011;6175;50.956;11.064;2023-06-26T12:34:27;5.25;;;4.72;;
12224;SDS011;6175;50.956;11.064;2023-06-26T12:36:59;4.97;;;4.57;;
12224;SDS011;6175;50.956;11.064;2023-06-26T12:39:27;5.65;;;5.15;;
12224;SDS011;6175;50.956;11.064;2023-06-26T12:41:54;5.68;;;5.13;;
12224;SDS011;6175;50.956;11.064;2023-06-26T12:44:25;5.32;;;4.82;;
12224;SDS011;6175;50.956;11.064;2023-06-26T12:46:54;5.45;;;4.95;;
12224;SDS011;6175;50.956;11.064;2023-06-26T12:49:29;7.20;;;5.28;;
12224;SDS011;6175;50.956;11.064;2023-06-26T12:51:58;10.43;;;7.00;;
12224;SDS011;6175;50.956;11.064;2023-06-26T12:54:25;8.20;;;5.32;;
12224;SDS011;6175;50.956;11.064;2023-06-26T12:56:53;8.30;;;7.00;;
12224;SDS011;6175;50.956;11.064;2023-06-26T12:59:20;6.28;;;5.72;;
12224;SDS011;6175;50.956;11.064;2023-06-26T13:01:47;6.57;;;5.40;;
12224;SDS011;6175;50.956;11.064;2023-06-26T13:04:14;5.68;;;4.95;;
12224;SDS011;6175;50.956;11.064;2023-06-26T13:06:42;11.43;;;6.35;;
12224;SDS011;6175;50.956;11.064;2023-06-26T13:09:10;5.45;;;4.88;;
12224;SDS011;6175;50.956;11.064;2023-06-26T13:11:37;5.63;;;5.13;;
12224;SDS011;6175;50.956;11.064;2023-06-26T13:14:04;6.50;;;5.60;;
12224;SDS011;6175;50.956;11.064;2023-06-26T13:16:31;9.93;;;6.60;;
12224;SDS011;6175;50.956;11.064;2023-06-26T13:18:58;8.73;;;6.07;;
12224;SDS011;6175;50.956;11.064;2023-06-26T13:21:26;9.10;;;6.18;;
12224;SDS011;6175;50.956;11.064;2023-06-26T13:23:54;7.20;;;6.50;;
12224;SDS011;6175;50.956;11.064;2023-06-26T13:26:22;7.75;;;5.82;;
12224;SDS011;6175;50.956;11.064;2023-06-26T13:28:50;10.55;;;6.95;;
12224;SDS011;6175;50.956;11.064;2023-06-26T13:31:17;9.23;;;6.15;;
12224;SDS011;6175;50.956;11.064;2023-06-26T13:33:44;7.38;;;6.22;;
12224;SDS011;6175;50.956;11.064;2023-06-26T13:36:13;7.10;;;6.40;;
12224;SDS011;6175;50.956;11.064;2023-06-26T13:38:40;7.55;;;6.43;;
12224;SDS011;6175;50.956;11.064;2023-06-26T13:41:09;9.15;;;6.50;;
12224;SDS011;6175;50.956;11.064;2023-06-26T13:43:36;9.27;;;5.75;;
12224;SDS011;6175;50.956;11.064;2023-06-26T13:46:03;6.57;;;5.88;;
12224;SDS011;6175;50.956;11.064;2023-06-26T13:48:30;7.03;;;6.38;;
12224;SDS011;6175;50.956;11.064;2023-06-26T13:50:58;8.15;;;6.32;;
12224;SDS011;6175;50.956;11.064;2023-06-26T13:53:25;9.00;;;5.55;;
12224;SDS011;6175;50.956;11.064;2023-06-26T13:55:52;6.82;;;5.88;;
12224;SDS011;6175;50.956;11.064;2023-06-26T13:58:21;6.88;;;6.18;;
12224;SDS011;6175;50.956;11.064;2023-06-26T14:00:51;5.90;;;5.40;;
12224;SDS011;6175;50.956;11.064;2023-06-26T14:03:18;8.52;;;6.10;;
12224;SDS011;6175;50.956;11.064;2023-06-26T14:05:45;6.43;;;5.80;;
12224;SDS011;6175;50.956;11.064;2023-06-26T14:08:12;8.15;;;6.03;;
12224;SDS011;6175;50.956;11.064;2023-06-26T14:10:39;7.00;;;6.15;;
12224;SDS011;6175;50.956;11.064;2023-06-26T14:13:07;10.13;;;6.63;;
12224;SDS011;6175;50.956;11.064;2023-06-26T14:15:38;7.55;;;6.70;;
12224;SDS011;6175;50.956;11.064;2023-06-26T14:18:05;7.25;;;6.38;;
12224;SDS011;6175;50.956;11.064;2023-06-26T14:20:32;8.30;;;6.47;;
12224;SDS011;6175;50.956;11.064;2023-06-26T14:23:01;6.85;;;6.25;;
12224;SDS011;6175;50.956;11.064;2023-06-26T14:25:28;7.10;;;6.40;;
12224;SDS011;6175;50.956;11.064;2023-06-26T14:27:55;7.15;;;6.45;;
12224;SDS011;6175;50.956;11.064;2023-06-26T14:30:22;8.40;;;7.63;;
12224;SDS011;6175;50.956;11.064;2023-06-26T14:32:51;7.20;;;6.60;;
12224;SDS011;6175;50.956;11.064;2023-06-26T14:35:17;7.72;;;6.97;;
12224;SDS011;6175;50.956;11.064;2023-06-26T14:37:44;7.75;;;6.95;;
12224;SDS011;6175;50.956;11.064;2023-06-26T14:40:12;9.00;;;7.80;;
12224;SDS011;6175;50.956;11.064;2023-06-26T14:42:39;9.60;;;8.70;;
12224;SDS011;6175;50.956;11.064;2023-06-26T14:45:08;9.73;;;8.80;;
12224;SDS011;6175;50.956;11.064;2023-06-26T14:47:35;11.20;;;9.60;;
12224;SDS011;6175;50.956;11.064;2023-06-26T14:50:04;10.27;;;9.27;;
12224;SDS011;6175;50.956;11.064;2023-06-26T14:52:32;9.35;;;8.40;;